sensor_id;sensor_type;location;lat;lon;timestamp;pressure;altitude;pressure_sealevel;temperature;humidity
62592;BME280;48659;41.622;2.276;2023-04-25T00:00:34;99728.53;;;13.49;57.17
62592;BME280;48659;41.622;2.276;2023-04-25T00:03:02;99730.63;;;12.62;58.79
62592;BME280;48659;41.622;2.276;2023-04-25T00:05:29;99728.23;;;13.55;56.26
62592;BME280;48659;41.622;2.276;2023-04-25T00:07:57;99719.01;;;13.98;55.88
62592;BME280;48659;41.622;2.276;2023-04-25T00:10:24;99722.03;;;13.26;57.70
62592;BME280;48659;41.622;2.276;2023-04-25T00:12:51;99717.35;;;13.74;56.96
62592;BME280;48659;41.622;2.276;2023-04-25T00:15:19;99718.77;;;13.49;57.38
62592;BME280;48659;41.622;2.276;2023-04-25T00:17:47;99713.28;;;12.72;59.68
62592;BME280;48659;41.622;2.276;2023-04-25T00:20:15;99712.80;;;12.24;59.56
62592;BME280;48659;41.622;2.276;2023-04-25T00:22:42;99713.78;;;13.07;57.71
62592;BME280;48659;41.622;2.276;2023-04-25T00:25:09;99703.56;;;11.99;61.62
62592;BME280;48659;41.622;2.276;2023-04-25T00:27:37;99698.12;;;12.39;59.12
62592;BME280;48659;41.622;2.276;2023-04-25T00:30:06;99700.07;;;12.78;60.23
62592;BME280;48659;41.622;2.276;2023-04-25T00:32:33;99697.76;;;12.10;59.25
62592;BME280;48659;41.622;2.276;2023-04-25T00:35:02;99694.25;;;12.92;58.42
62592;BME280;48659;41.622;2.276;2023-04-25T00:37:29;99684.57;;;14.53;54.40
62592;BME280;48659;41.622;2.276;2023-04-25T00:39:57;99682.43;;;14.26;54.20
62592;BME280;48659;41.622;2.276;2023-04-25T00:42:25;99684.43;;;13.52;56.25
62592;BME280;48659;41.622;2.276;2023-04-25T00:44:53;99682.16;;;13.07;56.67
62592;BME280;48659;41.622;2.276;2023-04-25T00:47:20;99672.12;;;13.86;56.77
62592;BME280;48659;41.622;2.276;2023-04-25T00:49:48;99671.40;;;13.38;56.38
62592;BME280;48659;41.622;2.276;2023-04-25T00:52:15;99675.87;;;12.04;59.76
62592;BME280;48659;41.622;2.276;2023-04-25T00:54:42;99673.83;;;12.34;58.58
62592;BME280;48659;41.622;2.276;2023-04-25T00:57:10;99676.01;;;13.69;55.43
62592;BME280;48659;41.622;2.276;2023-04-25T00:59:38;99676.63;;;13.00;56.03
62592;BME280;48659;41.622;2.276;2023-04-25T01:02:05;99680.43;;;12.44;57.92
62592;BME280;48659;41.622;2.276;2023-04-25T01:04:33;99690.65;;;9.83;66.63
62592;BME280;48659;41.622;2.276;2023-04-25T01:07:01;99683.46;;;12.00;60.68
62592;BME280;48659;41.622;2.276;2023-04-25T01:09:30;99682.46;;;11.61;61.63
62592;BME280;48659;41.622;2.276;2023-04-25T01:11:58;99683.12;;;13.08;58.47
62592;BME280;48659;41.622;2.276;2023-04-25T01:14:25;99678.46;;;13.31;56.03
62592;BME280;48659;41.622;2.276;2023-04-25T01:16:53;99677.00;;;13.13;56.61
62592;BME280;48659;41.622;2.276;2023-04-25T01:19:20;99672.66;;;12.62;57.79
62592;BME280;48659;41.622;2.276;2023-04-25T01:21:47;99669.14;;;12.86;57.38
62592;BME280;48659;41.622;2.276;2023-04-25T01:24:15;99664.54;;;11.42;62.01
62592;BME280;48659;41.622;2.276;2023-04-25T01:26:43;99659.47;;;10.94;62.27
62592;BME280;48659;41.622;2.276;2023-04-25T01:29:11;99659.84;;;11.50;62.00
62592;BME280;48659;41.622;2.276;2023-04-25T01:31:39;99656.93;;;11.32;61.18
62592;BME280;48659;41.622;2.276;2023-04-25T01:34:06;99654.16;;;11.91;60.08
62592;BME280;48659;41.622;2.276;2023-04-25T01:36:34;99661.70;;;11.88;59.30
62592;BME280;48659;41.622;2.276;2023-04-25T01:39:02;99665.78;;;12.06;59.97
62592;BME280;48659;41.622;2.276;2023-04-25T01:41:36;99663.70;;;12.20;60.31
62592;BME280;48659;41.622;2.276;2023-04-25T01:44:04;99659.99;;;11.49;62.52
62592;BME280;48659;41.622;2.276;2023-04-25T01:46:35;99659.16;;;11.25;63.88
62592;BME280;48659;41.622;2.276;2023-04-25T01:49:02;99663.81;;;10.94;64.71
62592;BME280;48659;41.622;2.276;2023-04-25T01:51:35;99661.68;;;12.56;58.91
62592;BME280;48659;41.622;2.276;2023-04-25T01:54:03;99654.75;;;12.79;58.30
62592;BME280;48659;41.622;2.276;2023-04-25T01:56:37;99650.96;;;13.29;57.00
62592;BME280;48659;41.622;2.276;2023-04-25T01:59:19;99643.77;;;13.37;56.15
62592;BME280;48659;41.622;2.276;2023-04-25T02:01:48;99635.73;;;14.80;52.62
62592;BME280;48659;41.622;2.276;2023-04-25T02:04:16;99630.13;;;15.18;50.87
62592;BME280;48659;41.622;2.276;2023-04-25T02:06:44;99627.50;;;14.95;49.74
62592;BME280;48659;41.622;2.276;2023-04-25T02:09:11;99627.89;;;14.77;50.62
62592;BME280;48659;41.622;2.276;2023-04-25T02:11:40;99627.52;;;15.18;49.80
62592;BME280;48659;41.622;2.276;2023-04-25T02:14:08;99637.68;;;14.90;50.69
62592;BME280;48659;41.622;2.276;2023-04-25T02:16:37;99637.43;;;13.91;52.66
62592;BME280;48659;41.622;2.276;2023-04-25T02:19:04;99630.50;;;14.64;50.96
62592;BME280;48659;41.622;2.276;2023-04-25T02:21:33;99625.76;;;14.98;50.13
62592;BME280;48659;41.622;2.276;2023-04-25T02:24:02;99634.02;;;14.91;50.90
62592;BME280;48659;41.622;2.276;2023-04-25T02:26:30;99629.35;;;14.55;50.45
62592;BME280;48659;41.622;2.276;2023-04-25T02:28:58;99628.85;;;15.24;50.11
62592;BME280;48659;41.622;2.276;2023-04-25T02:31:25;99623.60;;;15.14;49.57
62592;BME280;48659;41.622;2.276;2023-04-25T02:33:54;99624.46;;;14.96;49.88
62592;BME280;48659;41.622;2.276;2023-04-25T02:36:22;99621.78;;;15.37;49.66
62592;BME280;48659;41.622;2.276;2023-04-25T02:38:50;99624.29;;;15.64;49.16
62592;BME280;48659;41.622;2.276;2023-04-25T02:41:17;99631.82;;;15.29;49.43
62592;BME280;48659;41.622;2.276;2023-04-25T02:43:46;99632.71;;;15.21;49.51
62592;BME280;48659;41.622;2.276;2023-04-25T02:46:14;99631.81;;;15.44;49.35
62592;BME280;48659;41.622;2.276;2023-04-25T02:48:43;99629.30;;;15.22;49.71
62592;BME280;48659;41.622;2.276;2023-04-25T02:51:11;99626.21;;;15.23;49.92
62592;BME280;48659;41.622;2.276;2023-04-25T02:53:40;99623.44;;;14.98;50.22
62592;BME280;48659;41.622;2.276;2023-04-25T02:56:08;99630.07;;;14.89;49.91
62592;BME280;48659;41.622;2.276;2023-04-25T02:58:36;99623.73;;;15.22;49.24
62592;BME280;48659;41.622;2.276;2023-04-25T03:04:38;99626.69;;;15.56;49.38
62592;BME280;48659;41.622;2.276;2023-04-25T03:07:06;99625.48;;;15.25;49.41
62592;BME280;48659;41.622;2.276;2023-04-25T03:09:33;99634.29;;;14.46;50.45
62592;BME280;48659;41.622;2.276;2023-04-25T03:12:01;99627.54;;;14.86;50.28
62592;BME280;48659;41.622;2.276;2023-04-25T03:14:30;99621.82;;;14.92;50.08
62592;BME280;48659;41.622;2.276;2023-04-25T03:16:59;99620.61;;;14.92;50.07
62592;BME280;48659;41.622;2.276;2023-04-25T03:19:27;99616.77;;;14.82;50.44
62592;BME280;48659;41.622;2.276;2023-04-25T03:21:56;99612.91;;;13.73;52.48
62592;BME280;48659;41.622;2.276;2023-04-25T03:24:24;99606.60;;;14.87;49.71
62592;BME280;48659;41.622;2.276;2023-04-25T03:26:52;99605.32;;;14.24;51.63
62592;BME280;48659;41.622;2.276;2023-04-25T03:29:19;99620.89;;;11.81;55.95
62592;BME280;48659;41.622;2.276;2023-04-25T03:31:47;99618.39;;;12.60;55.58
62592;BME280;48659;41.622;2.276;2023-04-25T03:34:15;99611.70;;;13.60;52.41
62592;BME280;48659;41.622;2.276;2023-04-25T03:36:42;99613.36;;;14.66;50.64
62592;BME280;48659;41.622;2.276;2023-04-25T03:39:11;99616.99;;;14.76;50.33
62592;BME280;48659;41.622;2.276;2023-04-25T03:41:38;99620.88;;;14.90;49.74
62592;BME280;48659;41.622;2.276;2023-04-25T03:44:07;99626.24;;;14.39;50.09
62592;BME280;48659;41.622;2.276;2023-04-25T03:46:37;99625.25;;;14.74;49.95
62592;BME280;48659;41.622;2.276;2023-04-25T03:49:06;99620.94;;;15.23;49.33
62592;BME280;48659;41.622;2.276;2023-04-25T03:51:34;99615.06;;;15.01;49.58
62592;BME280;48659;41.622;2.276;2023-04-25T03:54:01;99609.05;;;15.07;49.65
62592;BME280;48659;41.622;2.276;2023-04-25T03:56:30;99612.50;;;12.08;55.56
62592;BME280;48659;41.622;2.276;2023-04-25T03:58:57;99611.65;;;13.38;54.09
62592;BME280;48659;41.622;2.276;2023-04-25T04:01:25;99611.82;;;13.99;51.65
62592;BME280;48659;41.622;2.276;2023-04-25T04:03:53;99614.10;;;12.06;56.66
62592;BME280;48659;41.622;2.276;2023-04-25T04:06:20;99600.20;;;12.96;54.97
62592;BME280;48659;41.622;2.276;2023-04-25T04:08:48;99589.89;;;14.16;52.44
62592;BME280;48659;41.622;2.276;2023-04-25T04:11:17;99592.25;;;13.94;51.73
62592;BME280;48659;41.622;2.276;2023-04-25T04:13:45;99597.27;;;12.52;54.54
62592;BME280;48659;41.622;2.276;2023-04-25T04:16:13;99593.76;;;13.64;52.80
62592;BME280;48659;41.622;2.276;2023-04-25T04:18:41;99591.77;;;13.64;52.57
62592;BME280;48659;41.622;2.276;2023-04-25T04:21:09;99587.55;;;12.91;53.49
62592;BME280;48659;41.622;2.276;2023-04-25T04:23:38;99579.81;;;12.58;54.09
62592;BME280;48659;41.622;2.276;2023-04-25T04:26:06;99579.93;;;14.27;50.97
62592;BME280;48659;41.622;2.276;2023-04-25T04:28:33;99570.74;;;13.51;51.70
62592;BME280;48659;41.622;2.276;2023-04-25T04:31:03;99573.12;;;13.90;51.94
62592;BME280;48659;41.622;2.276;2023-04-25T04:33:37;99578.26;;;13.28;53.15
62592;BME280;48659;41.622;2.276;2023-04-25T04:36:06;99585.81;;;13.48;53.33
62592;BME280;48659;41.622;2.276;2023-04-25T04:38:35;99589.91;;;14.17;51.02
62592;BME280;48659;41.622;2.276;2023-04-25T04:41:02;99593.44;;;12.12;56.12
62592;BME280;48659;41.622;2.276;2023-04-25T04:43:31;99588.63;;;12.46;55.82
62592;BME280;48659;41.622;2.276;2023-04-25T04:46:00;99583.64;;;13.69;53.54
62592;BME280;48659;41.622;2.276;2023-04-25T04:48:29;99585.13;;;13.76;53.20
62592;BME280;48659;41.622;2.276;2023-04-25T04:50:57;99584.23;;;14.12;52.01
62592;BME280;48659;41.622;2.276;2023-04-25T04:53:24;99591.86;;;14.42;51.75
62592;BME280;48659;41.622;2.276;2023-04-25T04:55:54;99598.25;;;14.47;50.59
62592;BME280;48659;41.622;2.276;2023-04-25T04:58:23;99602.98;;;13.47;52.45
62592;BME280;48659;41.622;2.276;2023-04-25T05:00:52;99607.56;;;14.51;50.44
62592;BME280;48659;41.622;2.276;2023-04-25T05:03:20;99603.98;;;14.91;49.73
62592;BME280;48659;41.622;2.276;2023-04-25T05:05:49;99604.66;;;14.44;50.04
62592;BME280;48659;41.622;2.276;2023-04-25T05:08:17;99603.02;;;15.59;48.75
62592;BME280;48659;41.622;2.276;2023-04-25T05:10:45;99597.72;;;15.73;47.59
62592;BME280;48659;41.622;2.276;2023-04-25T05:13:13;99593.86;;;15.78;47.64
62592;BME280;48659;41.622;2.276;2023-04-25T05:15:41;99597.75;;;15.53;48.07
62592;BME280;48659;41.622;2.276;2023-04-25T05:18:09;99597.08;;;15.66;47.79
62592;BME280;48659;41.622;2.276;2023-04-25T05:20:38;99600.58;;;15.30;48.09
62592;BME280;48659;41.622;2.276;2023-04-25T05:23:05;99605.95;;;15.52;48.35
62592;BME280;48659;41.622;2.276;2023-04-25T05:25:38;99605.97;;;15.28;48.25
62592;BME280;48659;41.622;2.276;2023-04-25T05:28:06;99602.09;;;15.66;47.98
62592;BME280;48659;41.622;2.276;2023-04-25T05:30:38;99607.25;;;15.02;48.73
62592;BME280;48659;41.622;2.276;2023-04-25T05:33:06;99610.37;;;15.60;47.82
62592;BME280;48659;41.622;2.276;2023-04-25T05:35:35;99611.46;;;15.53;48.15
62592;BME280;48659;41.622;2.276;2023-04-25T05:38:03;99615.08;;;15.54;48.22
62592;BME280;48659;41.622;2.276;2023-04-25T05:40:31;99620.26;;;15.42;48.63
62592;BME280;48659;41.622;2.276;2023-04-25T05:42:59;99618.60;;;15.66;48.42
62592;BME280;48659;41.622;2.276;2023-04-25T05:45:27;99622.79;;;16.16;47.38
62592;BME280;48659;41.622;2.276;2023-04-25T05:47:55;99623.82;;;16.22;46.73
62592;BME280;48659;41.622;2.276;2023-04-25T05:50:23;99629.27;;;16.69;46.33
62592;BME280;48659;41.622;2.276;2023-04-25T05:52:53;99631.75;;;16.37;46.51
62592;BME280;48659;41.622;2.276;2023-04-25T05:55:21;99638.51;;;16.69;46.34
62592;BME280;48659;41.622;2.276;2023-04-25T05:57:49;99639.49;;;13.35;51.35
62592;BME280;48659;41.622;2.276;2023-04-25T06:00:17;99632.69;;;15.78;48.04
62592;BME280;48659;41.622;2.276;2023-04-25T06:02:45;99631.20;;;15.63;48.25
62592;BME280;48659;41.622;2.276;2023-04-25T06:05:13;99636.91;;;14.99;50.72
62592;BME280;48659;41.622;2.276;2023-04-25T06:07:40;99630.62;;;15.80;49.34
62592;BME280;48659;41.622;2.276;2023-04-25T06:10:09;99630.85;;;16.53;47.56
62592;BME280;48659;41.622;2.276;2023-04-25T06:12:37;99626.11;;;15.54;49.61
62592;BME280;48659;41.622;2.276;2023-04-25T06:15:05;99626.64;;;15.81;49.34
62592;BME280;48659;41.622;2.276;2023-04-25T06:17:33;99628.18;;;15.87;49.21
62592;BME280;48659;41.622;2.276;2023-04-25T06:20:01;99629.55;;;16.50;48.36
62592;BME280;48659;41.622;2.276;2023-04-25T06:22:30;99626.69;;;17.00;47.49
62592;BME280;48659;41.622;2.276;2023-04-25T06:24:58;99625.54;;;16.88;47.59
62592;BME280;48659;41.622;2.276;2023-04-25T06:27:26;99624.64;;;16.44;47.49
62592;BME280;48659;41.622;2.276;2023-04-25T06:29:54;99626.88;;;16.69;47.43
62592;BME280;48659;41.622;2.276;2023-04-25T06:32:22;99622.79;;;16.58;47.35
62592;BME280;48659;41.622;2.276;2023-04-25T06:34:49;99621.93;;;17.13;46.48
62592;BME280;48659;41.622;2.276;2023-04-25T06:37:18;99623.20;;;17.02;46.64
62592;BME280;48659;41.622;2.276;2023-04-25T06:39:46;99625.02;;;17.10;46.46
62592;BME280;48659;41.622;2.276;2023-04-25T06:42:13;99625.66;;;17.18;46.36
62592;BME280;48659;41.622;2.276;2023-04-25T06:44:41;99624.06;;;17.72;45.63
62592;BME280;48659;41.622;2.276;2023-04-25T06:47:10;99616.75;;;17.68;45.03
62592;BME280;48659;41.622;2.276;2023-04-25T06:49:37;99627.19;;;17.19;46.02
62592;BME280;48659;41.622;2.276;2023-04-25T06:52:06;99629.21;;;17.10;45.89
62592;BME280;48659;41.622;2.276;2023-04-25T06:54:34;99629.76;;;16.22;48.05
62592;BME280;48659;41.622;2.276;2023-04-25T06:57:02;99626.57;;;16.32;48.34
62592;BME280;48659;41.622;2.276;2023-04-25T06:59:31;99625.18;;;15.07;51.45
62592;BME280;48659;41.622;2.276;2023-04-25T07:01:59;99618.65;;;16.24;49.10
62592;BME280;48659;41.622;2.276;2023-04-25T07:04:29;99614.41;;;15.52;50.05
62592;BME280;48659;41.622;2.276;2023-04-25T07:06:57;99611.59;;;17.35;46.74
62592;BME280;48659;41.622;2.276;2023-04-25T07:09:26;99615.29;;;17.60;46.39
62592;BME280;48659;41.622;2.276;2023-04-25T07:11:53;99611.59;;;17.98;45.20
62592;BME280;48659;41.622;2.276;2023-04-25T07:14:22;99613.66;;;18.23;44.34
62592;BME280;48659;41.622;2.276;2023-04-25T07:16:50;99609.60;;;17.74;45.70
62592;BME280;48659;41.622;2.276;2023-04-25T07:19:18;99609.40;;;18.11;45.04
62592;BME280;48659;41.622;2.276;2023-04-25T07:21:46;99612.25;;;17.82;45.58
62592;BME280;48659;41.622;2.276;2023-04-25T07:24:14;99616.54;;;17.71;45.43
62592;BME280;48659;41.622;2.276;2023-04-25T07:26:42;99628.96;;;16.42;48.89
62592;BME280;48659;41.622;2.276;2023-04-25T07:29:11;99626.99;;;17.60;46.45
62592;BME280;48659;41.622;2.276;2023-04-25T07:31:39;99616.99;;;18.18;45.24
62592;BME280;48659;41.622;2.276;2023-04-25T07:34:08;99617.30;;;17.78;45.61
62592;BME280;48659;41.622;2.276;2023-04-25T07:36:35;99618.67;;;18.83;43.96
62592;BME280;48659;41.622;2.276;2023-04-25T07:39:03;99615.99;;;18.78;43.96
62592;BME280;48659;41.622;2.276;2023-04-25T07:41:38;99613.54;;;18.60;43.33
62592;BME280;48659;41.622;2.276;2023-04-25T07:44:06;99612.19;;;19.10;42.27
62592;BME280;48659;41.622;2.276;2023-04-25T07:46:34;99604.27;;;19.80;41.28
62592;BME280;48659;41.622;2.276;2023-04-25T07:49:03;99607.79;;;19.33;41.53
62592;BME280;48659;41.622;2.276;2023-04-25T07:51:30;99600.97;;;19.59;41.30
62592;BME280;48659;41.622;2.276;2023-04-25T07:53:58;99598.78;;;20.05;40.87
62592;BME280;48659;41.622;2.276;2023-04-25T07:56:26;99594.50;;;20.61;40.37
62592;BME280;48659;41.622;2.276;2023-04-25T07:58:55;99589.88;;;19.54;41.46
62592;BME280;48659;41.622;2.276;2023-04-25T08:01:23;99589.85;;;19.39;42.07
62592;BME280;48659;41.622;2.276;2023-04-25T08:03:51;99591.75;;;17.27;45.20
62592;BME280;48659;41.622;2.276;2023-04-25T08:06:19;99587.94;;;18.49;43.79
62592;BME280;48659;41.622;2.276;2023-04-25T08:08:47;99578.23;;;18.03;43.95
62592;BME280;48659;41.622;2.276;2023-04-25T08:11:15;99579.04;;;17.71;45.62
62592;BME280;48659;41.622;2.276;2023-04-25T08:13:43;99582.58;;;18.93;43.68
62592;BME280;48659;41.622;2.276;2023-04-25T08:16:11;99571.67;;;19.36;42.57
62592;BME280;48659;41.622;2.276;2023-04-25T08:18:39;99564.94;;;19.92;40.63
62592;BME280;48659;41.622;2.276;2023-04-25T08:21:08;99571.17;;;19.63;40.82
62592;BME280;48659;41.622;2.276;2023-04-25T08:23:36;99577.62;;;19.25;42.11
62592;BME280;48659;41.622;2.276;2023-04-25T08:26:04;99574.75;;;20.35;40.49
62592;BME280;48659;41.622;2.276;2023-04-25T08:28:33;99572.55;;;20.51;39.67
62592;BME280;48659;41.622;2.276;2023-04-25T08:31:02;99569.83;;;20.50;39.14
62592;BME280;48659;41.622;2.276;2023-04-25T08:33:30;99565.49;;;18.81;41.62
62592;BME280;48659;41.622;2.276;2023-04-25T08:35:58;99564.75;;;20.24;39.65
62592;BME280;48659;41.622;2.276;2023-04-25T08:38:27;99562.28;;;18.56;42.55
62592;BME280;48659;41.622;2.276;2023-04-25T08:40:55;99564.02;;;20.60;39.12
62592;BME280;48659;41.622;2.276;2023-04-25T08:43:25;99567.96;;;18.89;41.77
62592;BME280;48659;41.622;2.276;2023-04-25T08:45:53;99570.23;;;19.54;41.58
62592;BME280;48659;41.622;2.276;2023-04-25T08:48:36;99571.40;;;20.68;39.17
62592;BME280;48659;41.622;2.276;2023-04-25T08:51:07;99571.38;;;20.49;38.86
62592;BME280;48659;41.622;2.276;2023-04-25T08:53:35;99567.73;;;21.47;37.30
62592;BME280;48659;41.622;2.276;2023-04-25T08:56:04;99569.76;;;19.98;39.56
62592;BME280;48659;41.622;2.276;2023-04-25T08:58:33;99570.78;;;20.27;38.73
62592;BME280;48659;41.622;2.276;2023-04-25T09:01:02;99571.45;;;20.63;38.42
62592;BME280;48659;41.622;2.276;2023-04-25T09:03:31;99573.62;;;19.89;39.46
62592;BME280;48659;41.622;2.276;2023-04-25T09:05:59;99572.41;;;20.38;38.56
62592;BME280;48659;41.622;2.276;2023-04-25T09:08:28;99572.31;;;20.59;37.90
62592;BME280;48659;41.622;2.276;2023-04-25T09:10:56;99567.88;;;20.66;38.09
62592;BME280;48659;41.622;2.276;2023-04-25T09:13:26;99561.40;;;20.67;38.10
62592;BME280;48659;41.622;2.276;2023-04-25T09:15:55;99554.58;;;20.91;37.91
62592;BME280;48659;41.622;2.276;2023-04-25T09:18:26;99541.77;;;21.87;35.62
62592;BME280;48659;41.622;2.276;2023-04-25T09:20:56;99539.64;;;21.71;36.07
62592;BME280;48659;41.622;2.276;2023-04-25T09:23:24;99538.33;;;19.23;39.30
62592;BME280;48659;41.622;2.276;2023-04-25T09:25:53;99534.80;;;21.85;36.15
62592;BME280;48659;41.622;2.276;2023-04-25T09:28:25;99526.80;;;21.72;35.94
62592;BME280;48659;41.622;2.276;2023-04-25T09:30:56;99524.20;;;22.28;35.92
62592;BME280;48659;41.622;2.276;2023-04-25T09:33:29;99527.28;;;21.00;37.33
62592;BME280;48659;41.622;2.276;2023-04-25T09:36:03;99521.27;;;21.73;36.22
62592;BME280;48659;41.622;2.276;2023-04-25T09:38:32;99513.09;;;21.73;36.31
62592;BME280;48659;41.622;2.276;2023-04-25T09:41:08;99514.36;;;21.33;36.89
62592;BME280;48659;41.622;2.276;2023-04-25T09:43:38;99508.74;;;21.92;35.59
62592;BME280;48659;41.622;2.276;2023-04-25T09:46:09;99518.14;;;19.42;40.65
62592;BME280;48659;41.622;2.276;2023-04-25T09:48:38;99510.57;;;21.24;37.19
62592;BME280;48659;41.622;2.276;2023-04-25T09:51:08;99507.95;;;21.69;37.10
62592;BME280;48659;41.622;2.276;2023-04-25T09:53:38;99516.71;;;20.42;38.42
62592;BME280;48659;41.622;2.276;2023-04-25T09:56:09;99504.73;;;22.12;35.78
62592;BME280;48659;41.622;2.276;2023-04-25T09:58:39;99498.92;;;21.66;35.59
62592;BME280;48659;41.622;2.276;2023-04-25T10:01:08;99501.07;;;22.04;35.89
62592;BME280;48659;41.622;2.276;2023-04-25T10:03:38;99491.97;;;22.87;34.14
62592;BME280;48659;41.622;2.276;2023-04-25T10:06:11;99486.85;;;22.59;34.99
62592;BME280;48659;41.622;2.276;2023-04-25T10:08:41;99484.23;;;21.78;35.89
62592;BME280;48659;41.622;2.276;2023-04-25T10:11:10;99487.33;;;22.54;35.09
62592;BME280;48659;41.622;2.276;2023-04-25T10:13:39;99485.59;;;22.49;34.62
62592;BME280;48659;41.622;2.276;2023-04-25T10:16:08;99477.05;;;22.73;34.39
62592;BME280;48659;41.622;2.276;2023-04-25T10:18:37;99479.48;;;22.97;34.14
62592;BME280;48659;41.622;2.276;2023-04-25T10:21:06;99478.70;;;22.05;34.72
62592;BME280;48659;41.622;2.276;2023-04-25T10:23:37;99471.03;;;21.28;35.88
62592;BME280;48659;41.622;2.276;2023-04-25T10:26:07;99466.06;;;22.98;33.86
62592;BME280;48659;41.622;2.276;2023-04-25T10:28:56;99459.39;;;23.62;32.80
62592;BME280;48659;41.622;2.276;2023-04-25T10:31:24;99458.10;;;23.59;32.92
62592;BME280;48659;41.622;2.276;2023-04-25T10:33:52;99456.57;;;24.02;32.27
62592;BME280;48659;41.622;2.276;2023-04-25T10:36:22;99449.41;;;23.42;33.11
62592;BME280;48659;41.622;2.276;2023-04-25T10:38:51;99450.33;;;23.99;32.54
62592;BME280;48659;41.622;2.276;2023-04-25T10:41:21;99440.05;;;24.05;32.79
62592;BME280;48659;41.622;2.276;2023-04-25T10:43:50;99441.17;;;23.29;33.66
62592;BME280;48659;41.622;2.276;2023-04-25T10:46:28;99436.73;;;23.55;33.10
62592;BME280;48659;41.622;2.276;2023-04-25T10:48:58;99440.32;;;22.26;36.00
62592;BME280;48659;41.622;2.276;2023-04-25T10:51:27;99439.86;;;23.13;34.88
62592;BME280;48659;41.622;2.276;2023-04-25T10:54:00;99439.99;;;22.76;35.80
62592;BME280;48659;41.622;2.276;2023-04-25T10:56:30;99435.88;;;23.51;34.92
62592;BME280;48659;41.622;2.276;2023-04-25T10:59:07;99433.83;;;23.96;34.18
62592;BME280;48659;41.622;2.276;2023-04-25T11:01:38;99424.63;;;23.46;33.84
62592;BME280;48659;41.622;2.276;2023-04-25T11:04:06;99417.76;;;23.58;33.98
62592;BME280;48659;41.622;2.276;2023-04-25T11:07:02;99420.40;;;22.22;35.82
62592;BME280;48659;41.622;2.276;2023-04-25T11:09:33;99422.57;;;22.56;36.18
62592;BME280;48659;41.622;2.276;2023-04-25T11:12:02;99417.89;;;23.39;33.31
62592;BME280;48659;41.622;2.276;2023-04-25T11:14:31;99420.15;;;23.34;33.81
62592;BME280;48659;41.622;2.276;2023-04-25T11:16:59;99420.99;;;22.22;35.93
62592;BME280;48659;41.622;2.276;2023-04-25T11:19:29;99420.03;;;23.06;35.15
62592;BME280;48659;41.622;2.276;2023-04-25T11:21:58;99428.71;;;22.51;35.85
62592;BME280;48659;41.622;2.276;2023-04-25T11:24:28;99422.20;;;24.44;32.88
62592;BME280;48659;41.622;2.276;2023-04-25T11:26:58;99417.55;;;24.28;33.00
62592;BME280;48659;41.622;2.276;2023-04-25T11:29:28;99414.04;;;24.59;32.67
62592;BME280;48659;41.622;2.276;2023-04-25T11:31:56;99407.71;;;22.88;35.08
62592;BME280;48659;41.622;2.276;2023-04-25T11:34:25;99414.83;;;24.40;34.16
62592;BME280;48659;41.622;2.276;2023-04-25T11:36:53;99416.61;;;22.58;37.07
62592;BME280;48659;41.622;2.276;2023-04-25T11:39:24;99415.43;;;22.57;36.37
62592;BME280;48659;41.622;2.276;2023-04-25T11:41:53;99414.70;;;22.59;38.68
62592;BME280;48659;41.622;2.276;2023-04-25T11:44:22;99423.69;;;21.35;41.39
62592;BME280;48659;41.622;2.276;2023-04-25T11:46:51;99429.86;;;20.28;44.04
62592;BME280;48659;41.622;2.276;2023-04-25T11:49:19;99425.42;;;21.01;43.75
62592;BME280;48659;41.622;2.276;2023-04-25T11:51:48;99436.13;;;19.92;46.41
62592;BME280;48659;41.622;2.276;2023-04-25T11:54:16;99437.25;;;20.24;45.72
62592;BME280;48659;41.622;2.276;2023-04-25T11:56:45;99435.54;;;19.52;48.11
62592;BME280;48659;41.622;2.276;2023-04-25T11:59:13;99434.65;;;19.67;47.57
62592;BME280;48659;41.622;2.276;2023-04-25T12:01:48;99439.47;;;19.43;47.64
62592;BME280;48659;41.622;2.276;2023-04-25T12:04:18;99444.59;;;19.66;46.87
62592;BME280;48659;41.622;2.276;2023-04-25T12:06:48;99440.92;;;19.40;47.76
62592;BME280;48659;41.622;2.276;2023-04-25T12:09:19;99449.72;;;19.83;47.06
62592;BME280;48659;41.622;2.276;2023-04-25T12:11:52;99448.64;;;19.33;47.72
62592;BME280;48659;41.622;2.276;2023-04-25T12:14:24;99446.91;;;19.06;48.27
62592;BME280;48659;41.622;2.276;2023-04-25T12:16:55;99447.40;;;19.38;46.96
62592;BME280;48659;41.622;2.276;2023-04-25T12:19:25;99454.25;;;19.10;47.45
62592;BME280;48659;41.622;2.276;2023-04-25T12:21:52;99453.51;;;19.60;46.94
62592;BME280;48659;41.622;2.276;2023-04-25T12:24:23;99453.26;;;19.44;47.70
62592;BME280;48659;41.622;2.276;2023-04-25T12:26:55;99450.01;;;19.50;47.11
62592;BME280;48659;41.622;2.276;2023-04-25T12:29:28;99460.05;;;19.99;46.79
62592;BME280;48659;41.622;2.276;2023-04-25T12:31:56;99461.52;;;19.69;46.99
62592;BME280;48659;41.622;2.276;2023-04-25T12:34:24;99458.88;;;18.59;49.73
62592;BME280;48659;41.622;2.276;2023-04-25T12:36:53;99463.15;;;18.38;50.10
62592;BME280;48659;41.622;2.276;2023-04-25T12:39:24;99449.35;;;18.77;50.13
62592;BME280;48659;41.622;2.276;2023-04-25T12:41:53;99443.55;;;18.50;49.86
62592;BME280;48659;41.622;2.276;2023-04-25T12:44:21;99445.89;;;19.75;48.01
62592;BME280;48659;41.622;2.276;2023-04-25T12:46:49;99448.63;;;18.99;48.89
62592;BME280;48659;41.622;2.276;2023-04-25T12:49:17;99449.99;;;19.28;48.14
62592;BME280;48659;41.622;2.276;2023-04-25T12:51:45;99453.93;;;19.40;48.00
62592;BME280;48659;41.622;2.276;2023-04-25T12:54:14;99449.52;;;19.83;46.42
62592;BME280;48659;41.622;2.276;2023-04-25T12:56:41;99446.63;;;19.84;46.24
62592;BME280;48659;41.622;2.276;2023-04-25T12:59:09;99451.24;;;19.68;45.90
62592;BME280;48659;41.622;2.276;2023-04-25T13:01:38;99449.59;;;19.66;46.27
62592;BME280;48659;41.622;2.276;2023-04-25T13:04:06;99448.87;;;19.46;47.12
62592;BME280;48659;41.622;2.276;2023-04-25T13:06:34;99447.55;;;19.11;47.31
62592;BME280;48659;41.622;2.276;2023-04-25T13:09:01;99448.96;;;19.91;46.31
62592;BME280;48659;41.622;2.276;2023-04-25T13:11:30;99448.89;;;19.40;46.69